Time;durP1;ratioP1;P1;durP2;ratioP2;P2;SDS_P1;SDS_P2;PMS_P1;PMS_P2;Temp;Humidity;BMP_temperature;BMP_pressure;BME280_temperature;BME280_humidity;BME280_pressure;Samples;Min_cycle;Max_cycle;Signal;HPM_P1;HPM_P2
2022/12/27 00:02:02;;;;;;;8.93;2.20;;;3.40;99.90;;;;;;4917865;29;20093;-81
2022/12/27 00:04:28;;;;;;;8.93;1.88;;;3.50;99.90;;;;;;4934539;29;20035;-81
2022/12/27 00:06:54;;;;;;;14.55;2.75;;;3.70;99.90;;;;;;4932526;29;20401;-81
2022/12/27 00:09:19;;;;;;;6.82;2.00;;;3.50;99.90;;;;;;4930020;29;20051;-81
2022/12/27 00:11:45;;;;;;;10.77;2.58;;;3.60;99.90;;;;;;4914923;29;20054;-83
2022/12/27 00:14:10;;;;;;;5.90;2.05;;;3.60;99.90;;;;;;4929483;29;20042;-81
2022/12/27 00:16:37;;;;;;;7.68;2.20;;;3.70;99.90;;;;;;4932127;29;20291;-81
2022/12/27 00:19:03;;;;;;;10.00;1.85;;;3.70;99.90;;;;;;4918104;29;20089;-81
2022/12/27 00:21:28;;;;;;;7.63;1.92;;;3.70;99.90;;;;;;4928816;29;20055;-84
2022/12/27 00:23:56;;;;;;;10.95;1.50;;;3.80;99.90;;;;;;4930397;29;20134;-81
2022/12/27 00:26:27;;;;;;;9.55;2.25;;;3.80;99.90;;;;;;4934197;29;20048;-81
2022/12/27 00:28:54;;;;;;;7.70;1.83;;;3.80;99.90;;;;;;4936433;29;20423;-84
2022/12/27 00:31:21;;;;;;;12.55;2.10;;;3.90;99.90;;;;;;4915123;29;20035;-83
2022/12/27 00:33:48;;;;;;;10.43;2.13;;;3.90;99.90;;;;;;4947247;28;20048;-82
2022/12/27 00:36:16;;;;;;;6.57;1.85;;;3.90;99.90;;;;;;4930106;29;20920;-83
2022/12/27 00:38:42;;;;;;;10.68;2.10;;;4.00;99.90;;;;;;4914118;29;20057;-82
2022/12/27 00:41:08;;;;;;;7.78;1.60;;;4.00;99.90;;;;;;4929746;29;20104;-84
2022/12/27 00:43:34;;;;;;;12.20;1.95;;;4.00;99.90;;;;;;4928507;29;20054;-82
2022/12/27 00:46:00;;;;;;;8.77;1.83;;;3.50;99.90;;;;;;4926805;29;20491;-81
2022/12/27 00:48:25;;;;;;;8.98;2.25;;;4.00;99.90;;;;;;4929283;29;20044;-81
2022/12/27 00:50:57;;;;;;;9.98;1.58;;;3.90;99.90;;;;;;4913399;29;20079;-81
2022/12/27 00:53:23;;;;;;;6.68;1.80;;;3.90;99.90;;;;;;4933326;29;20047;-81
2022/12/27 00:55:49;;;;;;;10.02;2.28;;;3.90;99.90;;;;;;4927536;29;20976;-81
2022/12/27 00:58:14;;;;;;;8.10;2.05;;;3.90;99.90;;;;;;4913552;29;20042;-83
2022/12/27 01:00:40;;;;;;;10.20;1.95;;;3.80;99.90;;;;;;4912457;29;20122;-81
2022/12/27 01:03:05;;;;;;;10.25;2.05;;;3.80;99.90;;;;;;4923403;29;20474;-81
2022/12/27 01:05:31;;;;;;;8.60;1.83;;;3.70;99.90;;;;;;4913340;29;20423;-82
2022/12/27 01:07:56;;;;;;;8.10;2.03;;;3.70;99.90;;;;;;4925214;29;20055;-81
2022/12/27 01:10:23;;;;;;;11.13;2.05;;;3.60;99.90;;;;;;4932050;29;20059;-82
2022/12/27 01:12:49;;;;;;;7.78;1.67;;;3.60;99.90;;;;;;4931990;29;20090;-84
2022/12/27 01:15:14;;;;;;;11.43;2.50;;;3.60;99.90;;;;;;4927209;29;20305;-81
2022/12/27 01:17:40;;;;;;;11.60;2.20;;;3.60;99.90;;;;;;4920780;29;20119;-81
2022/12/27 01:20:06;;;;;;;10.00;2.13;;;3.50;99.90;;;;;;4918702;29;20043;-81
2022/12/27 01:22:31;;;;;;;10.73;1.70;;;3.50;99.90;;;;;;4928817;29;20040;-83
2022/12/27 01:24:57;;;;;;;7.70;1.70;;;3.50;99.90;;;;;;4934608;29;20086;-83
2022/12/27 01:27:22;;;;;;;10.98;1.48;;;3.50;99.90;;;;;;4931761;29;20253;-82
2022/12/27 01:29:48;;;;;;;6.60;1.58;;;3.50;99.90;;;;;;4934538;29;20059;-81
2022/12/27 01:32:14;;;;;;;10.02;1.63;;;3.50;99.90;;;;;;4935083;29;20047;-82
2022/12/27 01:34:39;;;;;;;9.48;1.58;;;3.50;99.90;;;;;;4917150;29;20043;-83
2022/12/27 01:37:05;;;;;;;9.20;1.92;;;3.50;99.90;;;;;;4932962;29;20048;-83
2022/12/27 01:39:30;;;;;;;12.05;1.98;;;3.50;99.90;;;;;;4924805;29;20078;-82
2022/12/27 01:44:42;;;;;;;11.02;2.25;;;3.60;99.90;;;;;;4934615;29;20059;-82
2022/12/27 01:47:11;;;;;;;7.65;1.90;;;3.60;99.90;;;;;;4920158;29;20122;-82
2022/12/27 01:49:37;;;;;;;10.65;1.70;;;3.60;99.90;;;;;;4930233;29;20071;-84
2022/12/27 01:52:03;;;;;;;9.40;2.53;;;3.60;99.90;;;;;;4917877;29;20059;-81
2022/12/27 01:54:29;;;;;;;7.80;1.40;;;3.70;99.90;;;;;;4932190;29;20040;-81
2022/12/27 01:56:56;;;;;;;11.85;2.13;;;3.70;99.90;;;;;;4918547;29;20040;-82
2022/12/27 01:59:22;;;;;;;12.23;1.98;;;3.70;99.90;;;;;;4927002;29;20399;-82
2022/12/27 02:01:49;;;;;;;10.60;2.33;;;3.80;99.90;;;;;;4917929;29;20046;-83
2022/12/27 02:04:19;;;;;;;8.20;1.60;;;3.80;99.90;;;;;;4917073;29;20579;-85
2022/12/27 02:06:46;;;;;;;16.10;2.53;;;3.90;99.90;;;;;;4928037;29;20518;-81
2022/12/27 02:09:41;;;;;;;9.15;1.45;;;4.00;99.90;;;;;;4936600;29;20051;-81
2022/12/27 02:12:09;;;;;;;6.93;1.58;;;4.10;99.90;;;;;;4930307;29;20071;-84
2022/12/27 02:14:43;;;;;;;5.25;1.48;;;4.10;99.90;;;;;;4932629;29;20666;-84
2022/12/27 02:17:25;;;;;;;11.00;2.30;;;4.10;99.90;;;;;;4932542;29;20435;-81
2022/12/27 02:20:10;;;;;;;5.38;1.25;;;4.30;99.90;;;;;;4932545;29;20051;-81
2022/12/27 02:25:49;;;;;;;7.50;0.90;;;4.30;99.90;;;;;;4935882;29;20048;-81
2022/12/27 02:28:18;;;;;;;4.70;1.10;;;4.30;99.90;;;;;;4915409;29;20413;-81
2022/12/27 02:30:48;;;;;;;9.48;1.45;;;4.40;99.90;;;;;;4934862;29;20043;-83
2022/12/27 02:33:18;;;;;;;9.38;1.60;;;4.40;99.90;;;;;;4931259;29;20052;-81
2022/12/27 02:35:58;;;;;;;9.57;1.63;;;4.30;99.90;;;;;;4930994;29;20051;-81
2022/12/27 02:38:32;;;;;;;13.60;1.88;;;4.40;99.90;;;;;;4931634;29;20114;-81
2022/12/27 02:53:02;;;;;;;14.65;2.10;;;4.40;99.90;;;;;;4934966;29;20056;-81
2022/12/27 02:59:10;;;;;;;15.23;2.30;;;4.60;99.90;;;;;;4948670;28;20054;-83
2022/12/27 03:05:16;;;;;;;8.02;1.77;;;4.60;99.90;;;;;;4934091;29;20131;-81
2022/12/27 03:07:54;;;;;;;10.90;1.77;;;4.60;99.90;;;;;;4933188;29;20126;-81
2022/12/27 03:16:30;;;;;;;7.28;1.77;;;4.50;99.90;;;;;;4932168;29;20064;-81
2022/12/27 03:18:58;;;;;;;15.27;3.35;;;4.50;99.90;;;;;;4932376;29;20048;-82
2022/12/27 03:27:27;;;;;;;10.65;1.80;;;4.40;99.90;;;;;;4932357;29;20082;-81
2022/12/27 03:38:01;;;;;;;7.47;1.77;;;4.50;99.90;;;;;;4929743;29;20050;-83
2022/12/27 03:38:45;;;;;;;15.23;1.98;;;4.60;99.90;;;;;;4927800;29;20112;-85
2022/12/27 03:44:03;;;;;;;12.48;1.60;;;4.60;99.90;;;;;;4930082;29;20122;-84
2022/12/27 03:46:33;;;;;;;9.57;1.65;;;5.10;99.90;;;;;;4913818;29;20040;-81
2022/12/27 03:49:36;;;;;;;15.15;1.83;;;4.70;99.90;;;;;;4917378;29;20063;-82
2022/12/27 03:52:24;;;;;;;14.30;2.03;;;4.70;99.90;;;;;;4911801;29;20066;-81
2022/12/27 03:54:51;;;;;;;15.02;1.80;;;4.70;99.90;;;;;;4933675;29;20126;-82
2022/12/27 03:57:20;;;;;;;13.75;1.75;;;4.70;99.90;;;;;;4932606;29;20054;-82
2022/12/27 03:59:46;;;;;;;7.28;1.65;;;4.60;99.90;;;;;;4929944;29;20079;-81
2022/12/27 04:02:12;;;;;;;9.07;1.42;;;4.60;99.90;;;;;;4934695;29;20047;-81
2022/12/27 04:04:37;;;;;;;9.90;2.03;;;4.60;99.90;;;;;;4929352;29;20073;-82
2022/12/27 04:07:03;;;;;;;9.35;1.27;;;4.50;99.90;;;;;;4931611;29;20039;-81
2022/12/27 04:36:53;;;;;;;8.02;1.80;;;4.40;99.90;;;;;;4932141;29;20046;-82
2022/12/27 04:39:18;;;;;;;12.02;1.30;;;4.40;99.90;;;;;;4933092;29;20031;-83
2022/12/27 04:55:29;;;;;;;11.50;1.55;;;4.20;99.90;;;;;;4936773;29;20507;-81
2022/12/27 04:57:56;;;;;;;12.60;2.15;;;4.20;99.90;;;;;;4935453;29;20042;-81
2022/12/27 05:03:13;;;;;;;13.55;1.77;;;4.20;99.90;;;;;;4939597;29;20115;-81
2022/12/27 05:05:40;;;;;;;11.20;2.30;;;4.10;99.90;;;;;;4928257;29;20079;-81
2022/12/27 05:16:19;;;;;;;11.18;1.77;;;4.00;99.90;;;;;;4942517;28;20106;-83
2022/12/27 05:18:45;;;;;;;12.60;1.88;;;3.90;99.90;;;;;;4937585;29;20051;-81
2022/12/27 05:21:10;;;;;;;14.70;2.35;;;4.00;99.90;;;;;;4938658;29;20043;-81
2022/12/27 05:26:27;;;;;;;10.63;1.77;;;3.90;99.90;;;;;;4935020;29;20048;-82
2022/12/27 05:28:56;;;;;;;9.52;2.33;;;3.80;99.90;;;;;;4937880;29;20499;-81
2022/12/27 05:31:23;;;;;;;7.88;1.65;;;3.80;99.90;;;;;;4940840;29;20095;-81
2022/12/27 05:33:49;;;;;;;10.63;1.33;;;3.90;99.90;;;;;;4936335;29;20811;-81
2022/12/27 05:36:15;;;;;;;16.88;2.28;;;3.80;99.90;;;;;;4920715;29;20082;-81
2022/12/27 05:38:41;;;;;;;19.10;2.13;;;3.90;99.90;;;;;;4934724;29;20040;-81
2022/12/27 05:41:07;;;;;;;10.65;1.63;;;3.80;99.90;;;;;;4923584;29;20043;-83
2022/12/27 05:43:33;;;;;;;9.63;1.67;;;3.90;99.90;;;;;;4940810;29;20048;-84
2022/12/27 05:46:07;;;;;;;13.77;2.08;;;3.70;99.90;;;;;;4924127;29;20067;-82
2022/12/27 05:48:33;;;;;;;10.07;1.48;;;3.80;99.90;;;;;;4940825;29;20054;-84
2022/12/27 05:51:04;;;;;;;8.75;2.40;;;3.70;99.90;;;;;;4931076;29;20040;-83
2022/12/27 05:53:30;;;;;;;11.40;2.20;;;3.70;99.90;;;;;;4933090;29;20047;-81
2022/12/27 05:55:56;;;;;;;15.15;2.00;;;3.80;99.90;;;;;;4955732;28;20126;-85
2022/12/27 05:58:23;;;;;;;12.40;1.70;;;3.80;99.90;;;;;;4918238;29;20027;-81
2022/12/27 06:00:48;;;;;;;9.43;1.60;;;3.70;99.90;;;;;;4921515;29;20048;-81
2022/12/27 06:03:14;;;;;;;7.43;1.42;;;3.80;99.90;;;;;;4921971;29;20071;-81
2022/12/27 06:05:40;;;;;;;14.30;2.10;;;3.80;99.90;;;;;;4924323;29;20048;-81
2022/12/27 06:08:05;;;;;;;9.50;1.25;;;3.80;99.90;;;;;;4919606;29;20099;-84
2022/12/27 06:10:31;;;;;;;13.98;1.40;;;3.80;99.90;;;;;;4938821;29;20047;-81
2022/12/27 06:12:59;;;;;;;10.05;2.17;;;3.80;99.90;;;;;;4936256;29;20040;-81
2022/12/27 06:15:25;;;;;;;11.57;2.13;;;3.90;99.90;;;;;;4939181;29;20130;-82
2022/12/27 06:17:50;;;;;;;12.15;2.08;;;3.90;99.90;;;;;;4936442;29;20067;-82
2022/12/27 06:20:17;;;;;;;12.10;1.80;;;3.90;99.90;;;;;;4930879;29;20043;-84
2022/12/27 06:22:42;;;;;;;14.48;2.35;;;3.90;99.90;;;;;;4946236;28;20087;-82
2022/12/27 06:25:08;;;;;;;11.00;2.15;;;3.90;99.90;;;;;;4930903;29;20039;-84
2022/12/27 06:27:34;;;;;;;10.60;2.25;;;4.00;99.90;;;;;;4935263;29;20050;-81
2022/12/27 06:29:59;;;;;;;11.18;1.25;;;4.00;99.90;;;;;;4923842;29;20035;-83
2022/12/27 06:32:25;;;;;;;7.70;1.25;;;4.00;99.90;;;;;;4923474;29;20115;-82
2022/12/27 06:34:50;;;;;;;16.00;1.52;;;4.10;99.90;;;;;;4911703;29;20048;-82
2022/12/27 06:37:17;;;;;;;10.85;1.20;;;4.10;99.90;;;;;;4934609;29;20044;-83
2022/12/27 06:39:43;;;;;;;12.77;1.15;;;4.10;99.90;;;;;;4953628;28;20103;-82
2022/12/27 06:42:08;;;;;;;13.43;2.53;;;4.00;99.90;;;;;;4936675;29;20040;-83
2022/12/27 06:44:34;;;;;;;14.75;2.13;;;4.00;99.90;;;;;;4934892;29;20554;-82
2022/12/27 06:47:00;;;;;;;7.90;1.45;;;4.00;99.90;;;;;;4921061;29;20094;-82
2022/12/27 06:49:25;;;;;;;11.30;1.85;;;4.10;99.90;;;;;;4933173;29;20677;-81
2022/12/27 06:51:51;;;;;;;13.75;2.05;;;4.00;99.90;;;;;;4932413;29;20112;-82
2022/12/27 06:54:17;;;;;;;8.52;1.48;;;4.00;99.90;;;;;;4932154;29;20087;-87
2022/12/27 06:57:24;;;;;;;9.77;1.42;;;4.00;99.90;;;;;;4938017;29;20032;-87
2022/12/27 07:00:05;;;;;;;13.25;1.52;;;4.00;99.90;;;;;;4930857;29;20046;-83
2022/12/27 07:02:31;;;;;;;8.88;1.30;;;3.90;99.90;;;;;;4938254;29;20035;-82
2022/12/27 07:04:57;;;;;;;9.52;1.83;;;3.90;99.90;;;;;;4934961;29;20619;-82
2022/12/27 07:07:22;;;;;;;13.88;1.70;;;3.90;99.90;;;;;;4917741;29;20036;-82
2022/12/27 07:09:48;;;;;;;13.50;2.50;;;3.90;99.90;;;;;;4933033;29;20051;-83
2022/12/27 07:12:13;;;;;;;10.35;1.98;;;3.90;99.90;;;;;;4921177;29;20052;-81
2022/12/27 07:14:39;;;;;;;11.85;2.13;;;3.80;99.90;;;;;;4920335;29;20047;-84
2022/12/27 07:17:05;;;;;;;16.38;2.38;;;3.70;99.90;;;;;;4932276;29;20098;-83
2022/12/27 07:19:30;;;;;;;11.15;1.77;;;3.70;99.90;;;;;;4914182;29;20040;-86
2022/12/27 07:21:56;;;;;;;12.85;2.88;;;3.70;99.90;;;;;;4915692;29;20199;-85
2022/12/27 07:24:21;;;;;;;10.93;2.08;;;3.60;99.90;;;;;;4931808;29;20142;-85
2022/12/27 07:26:47;;;;;;;9.13;1.83;;;3.60;99.90;;;;;;4931363;29;20545;-84
2022/12/27 07:29:12;;;;;;;18.88;3.78;;;3.50;99.90;;;;;;4914142;29;20047;-83
2022/12/27 07:31:39;;;;;;;9.75;2.00;;;3.50;99.90;;;;;;4919347;29;20046;-82
2022/12/27 07:34:04;;;;;;;14.57;2.70;;;3.50;99.90;;;;;;4914369;29;20050;-83
2022/12/27 07:36:34;;;;;;;11.10;2.30;;;3.50;99.90;;;;;;4913737;29;20040;-83
2022/12/27 07:39:00;;;;;;;15.18;2.83;;;3.50;99.90;;;;;;4929927;29;20138;-84
2022/12/27 07:41:25;;;;;;;11.82;2.50;;;3.40;99.90;;;;;;4927967;29;20087;-84
2022/12/27 07:44:03;;;;;;;10.35;1.80;;;3.40;99.90;;;;;;4927712;29;20111;-85
2022/12/27 07:46:29;;;;;;;14.20;2.25;;;3.50;99.90;;;;;;4915802;29;20059;-85
2022/12/27 07:48:56;;;;;;;12.18;1.98;;;3.50;99.90;;;;;;4916538;29;20109;-84
2022/12/27 07:51:23;;;;;;;13.68;2.45;;;3.50;99.90;;;;;;4927558;29;20064;-84
2022/12/27 07:53:54;;;;;;;12.00;2.60;;;3.60;99.90;;;;;;4932096;29;20102;-84
2022/12/27 07:56:23;;;;;;;12.80;3.08;;;3.60;99.90;;;;;;4913596;29;20119;-84
2022/12/27 07:58:50;;;;;;;14.93;1.80;;;3.50;99.90;;;;;;4915247;29;20091;-84
2022/12/27 08:01:17;;;;;;;11.00;2.13;;;3.60;99.90;;;;;;4914920;29;20138;-83
2022/12/27 08:03:43;;;;;;;14.32;2.05;;;3.60;99.90;;;;;;4927261;29;20125;-79
2022/12/27 08:06:54;;;;;;;9.95;1.63;;;3.70;99.90;;;;;;4931292;29;20590;-86
2022/12/27 08:09:29;;;;;;;6.53;1.85;;;3.70;99.90;;;;;;4914997;29;20047;-86
2022/12/27 08:11:54;;;;;;;13.63;2.38;;;3.70;99.90;;;;;;4933756;29;20043;-82
2022/12/27 08:14:20;;;;;;;9.70;1.83;;;3.70;99.90;;;;;;4930544;29;20074;-81
2022/12/27 08:16:46;;;;;;;9.23;1.67;;;3.70;99.90;;;;;;4931634;29;20071;-82
2022/12/27 08:19:11;;;;;;;11.80;1.75;;;3.70;99.90;;;;;;4932876;29;20039;-85
2022/12/27 08:21:37;;;;;;;13.40;2.45;;;3.90;99.90;;;;;;4911078;29;20044;-86
2022/12/27 08:27:44;;;;;;;11.30;2.60;;;3.70;99.90;;;;;;4932597;29;20046;-81
2022/12/27 08:30:10;;;;;;;17.77;4.22;;;3.80;99.90;;;;;;4928451;29;20141;-81
2022/12/27 08:32:35;;;;;;;17.90;2.38;;;3.80;99.90;;;;;;4913400;29;20039;-83
2022/12/27 08:35:01;;;;;;;11.50;1.98;;;3.80;99.90;;;;;;4923974;29;20044;-85
2022/12/27 08:37:26;;;;;;;11.75;1.83;;;3.80;99.90;;;;;;4925158;29;20044;-83
2022/12/27 08:39:52;;;;;;;8.98;1.73;;;3.90;99.90;;;;;;4925398;29;20412;-83
2022/12/27 08:42:55;;;;;;;9.98;1.90;;;3.90;99.90;;;;;;4914128;29;20040;-85
2022/12/27 08:45:27;;;;;;;19.05;2.47;;;4.00;99.90;;;;;;4930996;29;20063;-85
2022/12/27 08:48:26;;;;;;;14.27;2.22;;;4.50;99.90;;;;;;4903701;29;20093;-84
2022/12/27 08:50:52;;;;;;;14.18;1.98;;;4.30;99.90;;;;;;4924782;29;20107;-85
2022/12/27 08:53:17;;;;;;;10.70;2.03;;;4.10;99.90;;;;;;4930465;29;20035;-83
2022/12/27 08:55:43;;;;;;;16.50;2.72;;;4.10;99.90;;;;;;4927191;29;20051;-82
2022/12/27 08:58:10;;;;;;;14.23;2.20;;;4.20;99.90;;;;;;4931986;29;20520;-82
2022/12/27 09:00:36;;;;;;;9.38;1.98;;;4.20;99.90;;;;;;4915405;29;20091;-84
2022/12/27 09:03:02;;;;;;;13.80;2.58;;;4.10;99.90;;;;;;4917872;29;20043;-79
2022/12/27 09:05:28;;;;;;;17.23;2.95;;;4.10;99.90;;;;;;4911740;29;20521;-82
2022/12/27 09:07:54;;;;;;;16.25;2.28;;;4.10;99.90;;;;;;4931302;29;20039;-85
2022/12/27 09:10:27;;;;;;;11.60;2.08;;;4.10;99.90;;;;;;4927308;29;20062;-85
2022/12/27 09:13:32;;;;;;;12.10;2.72;;;4.10;99.90;;;;;;4929723;29;20076;-83
2022/12/27 09:15:57;;;;;;;11.13;2.15;;;4.00;99.90;;;;;;4915816;29;21327;-85
2022/12/27 09:18:23;;;;;;;13.15;2.20;;;4.10;99.90;;;;;;4910665;29;20483;-84
2022/12/27 09:20:49;;;;;;;17.27;2.95;;;4.10;99.90;;;;;;4916332;29;20035;-86
2022/12/27 09:23:14;;;;;;;17.60;2.90;;;4.20;99.90;;;;;;4935221;29;20091;-83
2022/12/27 09:25:40;;;;;;;9.68;2.22;;;4.20;99.90;;;;;;4906076;29;20388;-82
2022/12/27 09:28:05;;;;;;;10.57;2.50;;;4.20;99.90;;;;;;4910888;29;20095;-85
2022/12/27 09:30:34;;;;;;;12.57;3.50;;;4.20;99.90;;;;;;4911677;29;20530;-86
2022/12/27 09:33:02;;;;;;;10.10;2.80;;;4.30;99.90;;;;;;4925532;29;20839;-85
2022/12/27 09:35:30;;;;;;;17.67;2.75;;;4.30;99.90;;;;;;4930427;29;20521;-87
2022/12/27 09:37:56;;;;;;;8.90;2.80;;;4.50;99.90;;;;;;4928483;29;20044;-84
2022/12/27 09:40:21;;;;;;;11.77;2.33;;;4.50;99.90;;;;;;4928379;29;20047;-87
2022/12/27 09:43:03;;;;;;;12.02;2.50;;;4.60;99.90;;;;;;4936204;29;20044;-87
2022/12/27 09:45:44;;;;;;;13.55;2.55;;;4.60;99.90;;;;;;4938171;29;20063;-83
2022/12/27 09:48:34;;;;;;;13.68;2.42;;;4.70;99.90;;;;;;4947156;29;20043;-82
2022/12/27 09:51:12;;;;;;;15.43;3.35;;;4.60;99.90;;;;;;4916899;29;20098;-84
2022/12/27 09:53:58;;;;;;;8.07;2.03;;;4.70;99.90;;;;;;4934557;29;20039;-81
2022/12/27 09:56:50;;;;;;;9.88;2.50;;;4.80;99.90;;;;;;4917187;29;20044;-85
2022/12/27 09:59:37;;;;;;;10.98;2.33;;;4.80;99.90;;;;;;4913084;29;20071;-83
2022/12/27 10:02:16;;;;;;;11.02;2.20;;;4.90;99.90;;;;;;4934747;29;20043;-81
2022/12/27 10:04:42;;;;;;;15.85;3.10;;;4.90;99.90;;;;;;4932997;29;20098;-81
2022/12/27 10:07:40;;;;;;;7.78;2.15;;;5.00;99.90;;;;;;4932856;29;20536;-80
2022/12/27 10:10:43;;;;;;;12.93;2.47;;;5.00;99.90;;;;;;4932426;29;20407;-80
2022/12/27 10:13:40;;;;;;;15.02;3.05;;;5.10;99.90;;;;;;4930719;29;20040;-82
2022/12/27 10:16:44;;;;;;;15.38;3.17;;;5.10;99.90;;;;;;4911038;29;20050;-80
2022/12/27 10:19:18;;;;;;;12.43;3.15;;;5.20;99.90;;;;;;4930431;29;20142;-80
2022/12/27 10:22:19;;;;;;;16.70;2.92;;;5.30;99.90;;;;;;4933332;29;20142;-81
2022/12/27 10:24:51;;;;;;;12.27;2.38;;;5.50;99.90;;;;;;4935062;29;20059;-82
2022/12/27 10:27:26;;;;;;;11.82;3.08;;;5.60;99.90;;;;;;4914432;29;20044;-82
2022/12/27 10:29:54;;;;;;;33.75;5.60;;;5.70;99.90;;;;;;4928485;29;20054;-80
2022/12/27 10:32:20;;;;;;;46.25;4.82;;;5.90;99.90;;;;;;4916560;29;20487;-83
2022/12/27 10:35:00;;;;;;;16.70;3.08;;;6.00;99.90;;;;;;4929727;29;20045;-82
2022/12/27 10:37:26;;;;;;;14.30;2.30;;;6.10;99.90;;;;;;4912364;29;20067;-82
2022/12/27 10:39:51;;;;;;;11.00;2.30;;;6.00;99.90;;;;;;4922160;29;20391;-82
2022/12/27 10:42:37;;;;;;;9.40;1.92;;;5.90;99.90;;;;;;4913404;29;20166;-82
2022/12/27 10:45:25;;;;;;;10.73;2.63;;;5.90;99.90;;;;;;4930191;29;20039;-82
2022/12/27 10:47:52;;;;;;;13.35;3.05;;;6.00;99.90;;;;;;4912535;29;20048;-82
2022/12/27 10:50:21;;;;;;;9.63;1.90;;;6.00;99.90;;;;;;4913432;29;20315;-83
2022/12/27 10:52:47;;;;;;;16.25;2.50;;;6.00;99.90;;;;;;4913457;29;20043;-84
2022/12/27 10:55:34;;;;;;;13.35;2.35;;;6.10;99.90;;;;;;4924507;29;20039;-84
2022/12/27 10:58:20;;;;;;;20.63;2.78;;;6.10;99.90;;;;;;4941734;28;20410;-82
2022/12/27 11:01:04;;;;;;;19.27;2.33;;;6.30;99.90;;;;;;4926520;29;20044;-82
2022/12/27 11:03:31;;;;;;;12.90;1.83;;;6.50;99.90;;;;;;4914145;29;20537;-82
2022/12/27 11:06:17;;;;;;;11.38;2.13;;;6.50;99.90;;;;;;4914802;29;20135;-82
2022/12/27 11:08:43;;;;;;;12.18;1.80;;;6.60;99.90;;;;;;4925317;29;20040;-81
2022/12/27 11:11:17;;;;;;;8.05;1.95;;;6.70;99.90;;;;;;4932628;29;20084;-81
2022/12/27 11:13:43;;;;;;;19.52;2.53;;;6.90;99.90;;;;;;4926515;29;20040;-81
2022/12/27 11:16:30;;;;;;;14.15;1.70;;;6.90;99.90;;;;;;4916709;29;20035;-80
2022/12/27 11:18:58;;;;;;;11.48;1.40;;;7.00;99.90;;;;;;4926034;29;20047;-81
2022/12/27 11:21:25;;;;;;;11.38;1.75;;;7.20;99.90;;;;;;4926971;29;20051;-82
2022/12/27 11:23:54;;;;;;;7.22;1.75;;;7.30;99.90;;;;;;4924518;29;20066;-82
2022/12/27 11:26:39;;;;;;;7.82;1.38;;;7.50;99.90;;;;;;4917347;29;20047;-82
2022/12/27 11:29:05;;;;;;;10.25;1.95;;;7.80;99.90;;;;;;4927666;29;20083;-83
2022/12/27 11:31:39;;;;;;;14.55;1.90;;;8.00;99.90;;;;;;4911165;29;20499;-82
2022/12/27 11:34:32;;;;;;;13.52;1.90;;;8.10;99.90;;;;;;4926613;29;20063;-83
2022/12/27 11:37:13;;;;;;;10.88;1.75;;;8.00;99.90;;;;;;4930057;29;20043;-82
2022/12/27 11:39:53;;;;;;;6.68;1.58;;;8.10;99.90;;;;;;4911879;29;20036;-82
2022/12/27 11:42:39;;;;;;;11.30;1.67;;;8.00;99.90;;;;;;4912631;29;20055;-80
2022/12/27 11:45:22;;;;;;;10.27;1.63;;;7.90;99.90;;;;;;4928914;29;20064;-81
2022/12/27 11:47:57;;;;;;;13.73;1.85;;;7.70;99.90;;;;;;4910550;29;20032;-80
2022/12/27 11:50:26;;;;;;;12.15;1.38;;;7.60;99.90;;;;;;4912188;29;20044;-80
2022/12/27 11:53:27;;;;;;;15.38;1.98;;;7.60;99.90;;;;;;4910251;29;20050;-80
2022/12/27 11:56:20;;;;;;;7.40;2.05;;;7.50;99.90;;;;;;4890496;29;20111;-81
2022/12/27 11:59:06;;;;;;;10.82;1.90;;;7.40;99.90;;;;;;4924090;29;20074;-79
2022/12/27 12:01:53;;;;;;;12.23;1.20;;;7.30;99.90;;;;;;4929958;29;20040;-82
2022/12/27 12:04:25;;;;;;;12.32;2.50;;;7.20;99.90;;;;;;4915122;29;20143;-82
2022/12/27 12:07:09;;;;;;;10.80;1.77;;;7.20;99.90;;;;;;4939614;28;20051;-82
2022/12/27 12:09:52;;;;;;;10.30;1.90;;;7.10;99.90;;;;;;4929951;29;20131;-82
2022/12/27 12:12:55;;;;;;;9.45;1.33;;;7.30;99.90;;;;;;4911749;29;20046;-82
2022/12/27 12:15:44;;;;;;;9.02;1.40;;;7.30;99.90;;;;;;4929961;29;20118;-82
2022/12/27 12:18:25;;;;;;;11.02;1.98;;;7.40;99.90;;;;;;4908488;29;20139;-82
2022/12/27 12:21:02;;;;;;;5.15;0.93;;;7.40;99.90;;;;;;4906990;29;20055;-82
2022/12/27 12:24:05;;;;;;;9.70;1.75;;;7.40;99.90;;;;;;4916493;29;20851;-83
2022/12/27 12:27:06;;;;;;;7.72;1.77;;;7.50;99.90;;;;;;4914114;29;20094;-81
2022/12/27 12:29:50;;;;;;;9.23;1.63;;;7.40;99.90;;;;;;4926658;28;20068;-82
2022/12/27 12:32:37;;;;;;;8.82;1.63;;;7.30;99.90;;;;;;4906534;29;20067;-83
2022/12/27 12:35:27;;;;;;;13.98;1.58;;;7.30;99.90;;;;;;4910625;29;20056;-82
2022/12/27 12:38:01;;;;;;;10.13;1.73;;;7.30;99.90;;;;;;4913732;29;20569;-82
2022/12/27 12:40:39;;;;;;;9.82;2.45;;;7.30;99.90;;;;;;4907293;29;20048;-82
2022/12/27 12:43:51;;;;;;;15.02;3.30;;;7.30;99.90;;;;;;4909472;29;20565;-85
2022/12/27 12:46:37;;;;;;;9.50;2.10;;;7.40;99.90;;;;;;4909059;29;20070;-83
2022/12/27 12:49:25;;;;;;;12.63;2.33;;;7.40;99.90;;;;;;4939176;28;20194;-83
2022/12/27 12:51:50;;;;;;;13.27;2.47;;;7.60;99.90;;;;;;4923498;29;20047;-83
2022/12/27 12:54:26;;;;;;;8.00;2.00;;;7.30;99.90;;;;;;4905595;29;20039;-82
2022/12/27 12:57:07;;;;;;;;;;;7.30;99.90;;;;;;4924496;29;20044;-83
2022/12/27 13:00:07;;;;;;;13.20;2.75;;;7.30;99.90;;;;;;4935221;29;19927;-81
2022/12/27 13:03:02;;;;;;;12.38;3.65;;;7.20;99.90;;;;;;4930248;29;20067;-82
2022/12/27 13:05:46;;;;;;;9.00;2.92;;;7.20;99.90;;;;;;4932248;29;20091;-82
2022/12/27 13:08:29;;;;;;;7.80;2.35;;;7.20;99.90;;;;;;4909551;29;20046;-82
2022/12/27 13:11:08;;;;;;;12.68;2.97;;;7.10;99.90;;;;;;4945376;28;20113;-82
2022/12/27 13:13:52;;;;;;;11.05;2.85;;;7.10;99.90;;;;;;4927431;29;20162;-82
2022/12/27 13:16:28;;;;;;;13.07;2.65;;;7.60;99.90;;;;;;4927675;29;20044;-84
2022/12/27 13:19:13;;;;;;;13.82;2.67;;;7.20;99.90;;;;;;4944093;28;20030;-84
2022/12/27 13:21:57;;;;;;;12.82;4.68;;;7.20;99.90;;;;;;4920295;29;20040;-83
2022/12/27 13:24:48;;;;;;;10.43;2.90;;;7.10;99.90;;;;;;4913668;29;20055;-83
2022/12/27 13:27:41;;;;;;;9.40;2.80;;;7.20;99.90;;;;;;4916743;29;20443;-83
2022/12/27 13:31:11;;;;;;;12.75;3.45;;;7.10;99.90;;;;;;4928449;29;20039;-86
2022/12/27 13:33:57;;;;;;;8.93;3.75;;;7.10;99.90;;;;;;4845311;29;20051;-83
2022/12/27 13:36:40;;;;;;;11.77;4.05;;;7.00;99.90;;;;;;4912061;29;20123;-83
2022/12/27 13:39:43;;;;;;;11.85;2.92;;;7.00;99.90;;;;;;4908867;29;20047;-83
2022/12/27 13:42:17;;;;;;;10.60;3.15;;;7.00;99.90;;;;;;4917165;29;20164;-83
2022/12/27 13:44:53;;;;;;;16.42;2.92;;;7.00;99.90;;;;;;4931874;29;20056;-84
2022/12/27 13:47:41;;;;;;;8.68;3.28;;;7.00;99.90;;;;;;4915149;29;20047;-86
2022/12/27 13:50:22;;;;;;;12.07;3.60;;;7.10;99.90;;;;;;4928536;29;20048;-83
2022/12/27 13:52:57;;;;;;;12.85;3.92;;;7.10;99.90;;;;;;4916581;29;20028;-82
2022/12/27 13:56:03;;;;;;;9.23;3.40;;;7.10;99.90;;;;;;4913114;29;20032;-84
2022/12/27 13:59:00;;;;;;;10.40;3.35;;;7.10;99.90;;;;;;4905680;29;20043;-83
2022/12/27 14:01:29;;;;;;;13.77;3.70;;;7.10;99.90;;;;;;4894610;29;20079;-82
2022/12/27 14:04:21;;;;;;;12.10;3.75;;;7.00;99.90;;;;;;4926755;29;20142;-82
2022/12/27 14:06:52;;;;;;;12.40;4.45;;;6.90;99.90;;;;;;4926238;29;20087;-82
2022/12/27 14:09:27;;;;;;;11.68;4.05;;;7.00;99.90;;;;;;4917210;29;20039;-82
2022/12/27 14:12:08;;;;;;;14.00;5.53;;;6.90;99.90;;;;;;4905351;29;20499;-81
2022/12/27 14:14:38;;;;;;;14.15;5.32;;;6.80;99.90;;;;;;4913188;29;20078;-80
2022/12/27 14:17:36;;;;;;;12.57;5.20;;;6.70;99.90;;;;;;4923922;29;20102;-82
2022/12/27 14:20:31;;;;;;;13.80;5.70;;;6.80;99.90;;;;;;4926656;29;20040;-81
2022/12/27 14:23:02;;;;;;;13.23;6.35;;;6.80;99.90;;;;;;4929960;29;20056;-81
2022/12/27 14:25:53;;;;;;;11.55;6.22;;;6.60;99.90;;;;;;4926631;29;20055;-83
2022/12/27 14:28:40;;;;;;;12.73;6.30;;;6.60;99.90;;;;;;4923246;29;20051;-84
2022/12/27 14:31:33;;;;;;;18.77;7.20;;;6.60;99.90;;;;;;4928784;29;20379;-82
2022/12/27 14:34:36;;;;;;;13.32;6.55;;;6.60;99.90;;;;;;4925625;29;20819;-81
2022/12/27 14:37:15;;;;;;;14.60;6.68;;;6.60;99.90;;;;;;4927854;29;20040;-84
2022/12/27 14:40:17;;;;;;;16.83;7.93;;;6.60;99.90;;;;;;4924677;29;20048;-83
2022/12/27 14:43:04;;;;;;;12.48;6.70;;;6.50;99.90;;;;;;4929404;28;20048;-83
2022/12/27 14:46:00;;;;;;;14.18;7.13;;;6.50;99.90;;;;;;4907839;29;20052;-82
2022/12/27 14:48:55;;;;;;;18.53;9.00;;;6.50;99.90;;;;;;4905734;29;20074;-84
2022/12/27 14:51:56;;;;;;;12.85;6.90;;;6.50;99.90;;;;;;4882335;29;20048;-85
2022/12/27 14:54:44;;;;;;;10.15;7.00;;;6.40;99.90;;;;;;4911266;29;20040;-86
2022/12/27 14:57:39;;;;;;;14.10;8.02;;;6.40;99.90;;;;;;4919617;29;20040;-86
2022/12/27 15:00:25;;;;;;;17.13;7.85;;;6.30;99.90;;;;;;4916449;29;20135;-85
2022/12/27 15:03:21;;;;;;;15.93;8.68;;;6.20;99.90;;;;;;4928383;29;20499;-85
2022/12/27 15:06:16;;;;;;;18.15;8.35;;;6.20;99.90;;;;;;4914034;29;20168;-85
2022/12/27 15:08:57;;;;;;;13.90;9.10;;;6.10;99.90;;;;;;4925998;29;20090;-85
2022/12/27 15:12:13;;;;;;;17.98;9.13;;;6.10;99.90;;;;;;4933247;29;20495;-85
2022/12/27 15:15:03;;;;;;;13.65;8.73;;;6.10;99.90;;;;;;4905982;29;20513;-86